Terminal Aerodrome Forecast
Issued by NWS Knoxville/Tri Cities, TN

Current Version | Previous Version | Text Only | Print | Product List | Glossary On
Versions: 1 2 3 4 5 6 7 8 9 10 11 12 13 14 15 16 17 18 19 20 21 22 23 24 25 26 27 28 29
000
FTUS44 KMRX 281329 AAA
TAFCHA
TAF AMD
KCHA 281329Z 2813/2912 04006KT P6SM BKN025
     FM281500 06004KT P6SM BKN030
     FM281700 12004KT P6SM SCT030 BKN080
     FM290400 14003KT P6SM FEW050 SCT100=

USA.gov is the U.S. government's official web portal to all federal, state and local government web resources and services.